Time;durP1;ratioP1;P1;durP2;ratioP2;P2;SDS_P1;SDS_P2;PMS_P1;PMS_P2;Temp;Humidity;BMP_temperature;BMP_pressure;BME280_temperature;BME280_humidity;BME280_pressure;Samples;Min_cycle;Max_cycle;Signal;HPM_P1;HPM_P2
2022/05/08 00:00:07;;;;;;;321.30;117.03;;;;;;;11.57;54.52;100272.81;337214;29;972;-75
2022/05/08 00:00:18;;;;;;;319.37;117.37;;;;;;;11.57;54.47;100271.06;339297;29;1997;-75
2022/05/08 00:00:28;;;;;;;316.77;115.63;;;;;;;11.59;54.51;100269.22;338307;29;1505;-75
2022/05/08 00:00:39;;;;;;;316.60;114.13;;;;;;;11.53;54.62;100264.19;340013;29;861;-74
2022/05/08 00:00:49;;;;;;;318.13;114.73;;;;;;;11.53;54.35;100277.31;337103;29;1146;-74
2022/05/08 00:01:00;;;;;;;317.20;114.03;;;;;;;11.54;54.63;100267.69;338321;29;1061;-74
2022/05/08 00:01:10;;;;;;;319.30;116.13;;;;;;;11.53;54.67;100273.84;338384;29;2147;-75
2022/05/08 00:01:21;;;;;;;319.43;116.27;;;;;;;11.52;54.81;100272.97;337498;29;1663;-75
2022/05/08 00:01:35;;;;;;;320.95;116.88;;;;;;;11.51;54.37;100276.50;339681;29;1194;-75
2022/05/08 00:01:45;;;;;;;316.27;113.25;;;;;;;11.49;54.18;100273.06;335768;29;1294;-75
2022/05/08 00:01:55;;;;;;;316.48;111.93;;;;;;;11.49;54.32;100275.69;338293;29;1932;-75
2022/05/08 00:02:07;;;;;;;318.07;113.47;;;;;;;11.47;54.37;100277.50;338362;29;1403;-75
2022/05/08 00:02:18;;;;;;;321.65;116.28;;;;;;;11.47;54.45;100274.88;337260;29;996;-75
2022/05/08 00:02:28;;;;;;;321.70;116.28;;;;;;;11.48;54.48;100273.13;337018;29;1468;-75
2022/05/08 00:02:40;;;;;;;323.20;117.33;;;;;;;11.48;54.55;100267.88;334497;29;1598;-75
2022/05/08 00:02:54;;;;;;;323.65;115.57;;;;;;;11.49;54.58;100273.06;338498;29;1285;-75
2022/05/08 00:03:04;;;;;;;322.70;116.47;;;;;;;11.53;54.22;100266.81;338505;29;1027;-75
2022/05/08 00:03:15;;;;;;;318.52;116.05;;;;;;;11.51;54.34;100265.16;337473;29;1434;-76
2022/05/08 00:03:25;;;;;;;319.37;116.43;;;;;;;11.50;54.46;100264.31;337127;29;1195;-74
2022/05/08 00:03:36;;;;;;;320.97;116.67;;;;;;;11.52;54.38;100278.22;338323;29;1864;-74
2022/05/08 00:03:46;;;;;;;322.00;117.57;;;;;;;11.55;54.21;100272.88;337943;29;2008;-74
2022/05/08 00:03:57;;;;;;;319.87;115.70;;;;;;;11.55;54.30;100272.88;337089;29;1166;-74
2022/05/08 00:04:07;;;;;;;321.00;115.72;;;;;;;11.56;54.25;100269.34;339823;29;1226;-76
2022/05/08 00:04:19;;;;;;;320.90;115.50;;;;;;;11.54;54.25;100268.53;337053;29;1170;-75
2022/05/08 00:04:29;;;;;;;321.38;116.50;;;;;;;11.52;54.37;100277.34;335773;29;1688;-75
2022/05/08 00:04:40;;;;;;;318.95;116.65;;;;;;;11.51;54.13;100278.25;337084;29;1408;-75
2022/05/08 00:04:51;;;;;;;320.57;118.67;;;;;;;11.50;54.43;100272.16;340090;29;1548;-75
2022/05/08 00:05:01;;;;;;;321.67;116.88;;;;;;;11.50;54.35;100269.53;338637;29;1018;-75
2022/05/08 00:05:15;;;;;;;322.70;117.80;;;;;;;11.52;54.01;100272.97;335788;29;1627;-75
2022/05/08 00:05:25;;;;;;;322.45;117.05;;;;;;;11.53;54.42;100272.06;341071;29;1490;-75
2022/05/08 00:05:36;;;;;;;319.80;117.50;;;;;;;11.50;54.38;100274.78;338369;29;1390;-75
2022/05/08 00:05:46;;;;;;;320.10;116.50;;;;;;;11.50;54.59;100274.78;337138;29;1442;-75
2022/05/08 00:05:59;;;;;;;320.77;117.00;;;;;;;11.48;54.12;100271.38;337154;29;1323;-75
2022/05/08 00:06:11;;;;;;;318.65;115.82;;;;;;;11.49;54.39;100265.22;338414;29;1476;-75
2022/05/08 00:06:21;;;;;;;317.60;114.47;;;;;;;11.49;54.30;100262.59;338099;29;1576;-74
2022/05/08 00:06:32;;;;;;;317.17;114.30;;;;;;;11.52;54.36;100275.59;339906;29;853;-74
2022/05/08 00:06:43;;;;;;;316.33;114.03;;;;;;;11.56;54.30;100271.09;339955;29;1020;-75
2022/05/08 00:06:53;;;;;;;318.33;114.93;;;;;;;11.57;54.11;100263.19;336673;29;1543;-75
2022/05/08 00:07:04;;;;;;;320.43;114.80;;;;;;;11.58;54.52;100267.53;337326;29;1024;-74
2022/05/08 00:07:14;;;;;;;321.75;115.30;;;;;;;11.63;54.16;100265.59;335988;29;1479;-75
2022/05/08 00:07:25;;;;;;;319.80;114.18;;;;;;;11.63;54.22;100270.00;335909;29;1294;-75
2022/05/08 00:07:35;;;;;;;320.90;114.70;;;;;;;11.63;53.99;100270.84;336356;29;1286;-74
2022/05/08 00:07:45;;;;;;;321.05;114.05;;;;;;;11.63;54.30;100270.84;337181;29;1615;-74
2022/05/08 00:07:56;;;;;;;322.27;114.93;;;;;;;11.64;54.27;100269.94;337185;29;883;-74
2022/05/08 00:08:06;;;;;;;320.93;115.80;;;;;;;11.62;54.08;100263.88;339758;29;1316;-75
2022/05/08 00:08:17;;;;;;;321.52;116.57;;;;;;;11.62;54.14;100258.66;338552;29;1218;-74
2022/05/08 00:08:28;;;;;;;321.77;117.00;;;;;;;11.63;54.01;100265.59;335951;29;942;-75
2022/05/08 00:08:39;;;;;;;321.17;115.85;;;;;;;11.61;54.45;100270.03;336616;29;1591;-75
2022/05/08 00:08:49;;;;;;;318.97;114.63;;;;;;;11.60;54.17;100267.47;339305;29;1551;-75
2022/05/08 00:09:00;;;;;;;320.23;115.05;;;;;;;11.62;54.33;100263.88;338440;29;1337;-75
2022/05/08 00:09:10;;;;;;;319.77;115.20;;;;;;;11.62;54.26;100266.50;336476;29;2084;-75
2022/05/08 00:09:21;;;;;;;320.80;116.90;;;;;;;11.67;54.03;100261.09;336205;29;851;-75
2022/05/08 00:09:31;;;;;;;315.83;115.65;;;;;;;11.69;54.07;100268.94;337247;29;1318;-74
2022/05/08 00:09:41;;;;;;;318.47;116.00;;;;;;;11.70;54.16;100265.38;337164;29;1260;-75
2022/05/08 00:09:52;;;;;;;319.42;116.28;;;;;;;11.71;53.91;100269.69;339961;29;1095;-75
2022/05/08 00:10:02;;;;;;;322.37;117.33;;;;;;;11.72;54.02;100263.53;337366;29;864;-75
2022/05/08 00:10:13;;;;;;;320.63;116.18;;;;;;;11.72;54.22;100258.28;336817;29;1676;-74
2022/05/08 00:10:23;;;;;;;322.73;116.37;;;;;;;11.74;54.10;100266.97;337142;29;939;-74
2022/05/08 00:10:34;;;;;;;324.10;116.53;;;;;;;11.74;54.03;100274.84;338376;29;854;-74
2022/05/08 00:10:44;;;;;;;325.30;118.60;;;;;;;11.71;54.17;100267.06;340529;29;1094;-74
2022/05/08 00:10:54;;;;;;;326.63;119.17;;;;;;;11.69;53.78;100263.69;339421;29;1327;-74
2022/05/08 00:11:05;;;;;;;324.25;118.47;;;;;;;11.67;54.07;100268.97;339775;29;909;-74
2022/05/08 00:11:15;;;;;;;325.57;118.07;;;;;;;11.63;54.16;100264.75;335434;29;1349;-74
2022/05/08 00:11:26;;;;;;;322.48;115.95;;;;;;;11.59;54.18;100261.38;337212;29;1246;-74
2022/05/08 00:11:36;;;;;;;324.10;115.40;;;;;;;11.60;54.17;100265.72;338407;29;1186;-74
2022/05/08 00:11:46;;;;;;;324.30;115.72;;;;;;;11.61;54.25;100270.03;338187;29;2152;-74
2022/05/08 00:11:57;;;;;;;326.60;118.83;;;;;;;11.60;54.03;100263.09;337349;29;993;-75
2022/05/08 00:12:11;;;;;;;322.05;118.53;;;;;;;11.62;54.10;100269.13;338410;29;887;-74
2022/05/08 00:12:21;;;;;;;315.88;115.47;;;;;;;11.65;54.16;100263.78;339594;29;1402;-74
2022/05/08 00:12:31;;;;;;;315.30;114.68;;;;;;;11.65;53.98;100257.69;337064;29;1632;-74
2022/05/08 00:12:42;;;;;;;317.53;114.60;;;;;;;11.68;53.79;100277.69;338990;29;1543;-74
2022/05/08 00:12:52;;;;;;;320.67;115.97;;;;;;;11.68;54.00;100264.59;339509;29;1240;-74
2022/05/08 00:13:03;;;;;;;320.47;115.50;;;;;;;11.66;54.09;100267.25;337064;29;1436;-74
2022/05/08 00:13:14;;;;;;;319.27;115.55;;;;;;;11.66;53.95;100260.25;338395;29;846;-74
2022/05/08 00:13:25;;;;;;;320.13;116.72;;;;;;;11.65;54.17;100263.78;339751;29;1598;-74
2022/05/08 00:13:35;;;;;;;318.38;115.03;;;;;;;11.68;53.87;100257.56;337011;28;1600;-74
2022/05/08 00:13:47;;;;;;;318.30;114.90;;;;;;;11.70;53.82;100260.16;337285;29;1045;-74
2022/05/08 00:13:57;;;;;;;317.55;114.78;;;;;;;11.73;53.87;100260.88;339695;29;1966;-74
2022/05/08 00:14:08;;;;;;;319.83;117.25;;;;;;;11.73;53.94;100260.00;340112;29;1326;-74
2022/05/08 00:14:19;;;;;;;319.23;116.47;;;;;;;11.72;54.01;100267.00;337658;29;1310;-74
2022/05/08 00:14:29;;;;;;;319.08;116.65;;;;;;;11.74;54.00;100261.72;336974;29;1399;-74
2022/05/08 00:14:40;;;;;;;318.60;116.90;;;;;;;11.76;54.10;100268.63;338423;29;1304;-73
2022/05/08 00:14:50;;;;;;;317.52;117.57;;;;;;;11.77;53.74;100262.50;338308;29;1080;-74
2022/05/08 00:15:01;;;;;;;316.80;116.55;;;;;;;11.79;53.84;100262.44;335814;29;1305;-74
2022/05/08 00:15:11;;;;;;;318.60;116.03;;;;;;;11.80;53.94;100265.03;336475;29;1797;-74
2022/05/08 00:15:22;;;;;;;322.67;116.43;;;;;;;11.84;53.96;100265.78;338784;29;1332;-74
2022/05/08 00:15:32;;;;;;;325.90;116.20;;;;;;;11.86;54.07;100266.56;339445;29;932;-75
2022/05/08 00:15:42;;;;;;;324.80;116.15;;;;;;;11.83;53.84;100264.91;339683;29;1227;-74
2022/05/08 00:15:53;;;;;;;321.47;115.53;;;;;;;11.83;53.81;100261.44;339695;29;1800;-74
2022/05/08 00:16:04;;;;;;;316.90;115.35;;;;;;;11.84;53.95;100263.16;335783;29;1246;-75
2022/05/08 00:16:14;;;;;;;317.70;115.87;;;;;;;11.84;54.00;100257.91;337008;29;1318;-75
2022/05/08 00:16:24;;;;;;;318.60;115.55;;;;;;;11.84;53.95;100263.16;341150;29;1310;-75
2022/05/08 00:16:35;;;;;;;317.93;115.40;;;;;;;11.81;53.83;100263.25;341155;29;862;-75
2022/05/08 00:16:45;;;;;;;318.92;115.53;;;;;;;11.81;53.79;100260.63;338199;29;2226;-75
2022/05/08 00:16:56;;;;;;;318.93;116.60;;;;;;;11.81;54.27;100268.50;335783;29;1216;-75
2022/05/08 00:17:06;;;;;;;320.02;115.53;;;;;;;11.78;54.00;100258.97;338519;29;894;-76
2022/05/08 00:17:17;;;;;;;318.83;115.23;;;;;;;11.77;53.70;100266.88;339623;29;1769;-76
2022/05/08 00:17:29;;;;;;;316.95;114.32;;;;;;;11.75;53.81;100263.44;337135;29;947;-74
2022/05/08 00:17:40;;;;;;;316.85;114.22;;;;;;;11.77;53.65;100266.88;338279;29;1344;-74
2022/05/08 00:17:50;;;;;;;316.17;111.87;;;;;;;11.79;53.78;100259.81;335968;29;1406;-73
2022/05/08 00:18:01;;;;;;;317.90;112.30;;;;;;;11.81;53.67;100263.25;338314;29;1268;-75
2022/05/08 00:18:11;;;;;;;319.20;114.03;;;;;;;11.79;53.66;100265.06;334629;29;2011;-73
2022/05/08 00:18:23;;;;;;;322.27;115.57;;;;;;;11.76;53.41;100267.78;336583;29;1376;-73
2022/05/08 00:18:33;;;;;;;321.33;115.75;;;;;;;11.74;53.67;100262.56;336091;29;2097;-74
2022/05/08 00:18:44;;;;;;;319.27;115.20;;;;;;;11.77;53.46;100261.66;339053;29;1085;-74
2022/05/08 00:18:54;;;;;;;316.57;115.13;;;;;;;11.78;53.51;100260.75;338359;29;1557;-75
2022/05/08 00:19:04;;;;;;;316.52;115.82;;;;;;;11.78;53.12;100263.34;337356;29;854;-75
2022/05/08 00:19:15;;;;;;;318.17;117.37;;;;;;;11.77;53.55;100256.41;334349;29;1189;-74
2022/05/08 00:19:26;;;;;;;319.73;117.45;;;;;;;11.79;53.42;100260.69;338146;29;1969;-74
2022/05/08 00:19:36;;;;;;;320.20;116.97;;;;;;;11.81;53.23;100258.88;340302;29;2003;-74
2022/05/08 00:19:47;;;;;;;319.92;114.90;;;;;;;11.83;53.53;100267.53;341113;28;1347;-74
2022/05/08 00:19:57;;;;;;;319.23;114.05;;;;;;;11.86;53.36;100261.31;338180;29;1432;-74
2022/05/08 00:20:08;;;;;;;319.57;115.20;;;;;;;11.88;53.42;100262.13;334994;29;1300;-74
2022/05/08 00:20:19;;;;;;;320.30;116.13;;;;;;;11.88;53.43;100259.50;335566;29;2122;-74
2022/05/08 00:20:29;;;;;;;323.07;117.23;;;;;;;11.87;53.57;100263.03;336973;29;1136;-74
2022/05/08 00:20:39;;;;;;;324.15;116.65;;;;;;;11.91;53.43;100264.63;340793;28;1328;-74
2022/05/08 00:20:50;;;;;;;323.20;117.53;;;;;;;11.92;53.47;100263.72;338770;29;1249;-74
2022/05/08 00:21:00;;;;;;;323.58;118.60;;;;;;;11.93;53.64;100265.44;339736;29;1143;-74
2022/05/08 00:21:11;;;;;;;321.80;119.50;;;;;;;11.92;53.39;100254.09;337120;29;1341;-74
2022/05/08 00:21:21;;;;;;;322.08;119.22;;;;;;;11.96;53.58;100267.97;339771;29;1309;-74
2022/05/08 00:21:31;;;;;;;320.40;118.93;;;;;;;11.91;53.27;100260.25;339726;29;838;-76
2022/05/08 00:21:42;;;;;;;320.15;118.47;;;;;;;11.86;53.44;100261.31;339989;29;960;-75
2022/05/08 00:21:52;;;;;;;317.20;116.83;;;;;;;11.84;53.18;100260.53;339832;29;1229;-75
2022/05/08 00:22:03;;;;;;;316.73;114.18;;;;;;;11.83;53.18;100261.44;334432;29;1381;-75
2022/05/08 00:22:14;;;;;;;318.60;114.88;;;;;;;11.82;53.25;100262.34;337047;29;1079;-75
2022/05/08 00:22:24;;;;;;;321.43;117.93;;;;;;;11.81;53.60;100260.63;337071;29;1630;-75
2022/05/08 00:22:35;;;;;;;321.83;119.22;;;;;;;11.80;53.49;100257.16;335805;29;969;-75
2022/05/08 00:22:45;;;;;;;323.67;119.03;;;;;;;11.79;53.40;100260.69;335750;29;938;-75
2022/05/08 00:22:55;;;;;;;324.05;117.88;;;;;;;11.77;53.70;100266.88;334296;29;2552;-75
2022/05/08 00:23:06;;;;;;;324.80;117.43;;;;;;;11.69;53.43;100261.06;338727;29;2102;-75
2022/05/08 00:23:16;;;;;;;325.85;116.00;;;;;;;11.69;53.64;100263.69;339146;29;962;-75
2022/05/08 00:23:27;;;;;;;324.10;115.43;;;;;;;11.68;53.75;100268.06;339516;29;1327;-75
2022/05/08 00:23:37;;;;;;;323.70;114.97;;;;;;;11.68;53.51;100257.56;336220;29;1697;-75
2022/05/08 00:23:48;;;;;;;320.33;116.60;;;;;;;11.70;53.42;100260.97;335761;29;1480;-75
2022/05/08 00:23:58;;;;;;;321.10;117.32;;;;;;;11.70;53.91;100260.16;338201;29;1636;-75
2022/05/08 00:24:09;;;;;;;321.17;117.33;;;;;;;11.68;53.71;100251.47;336931;29;1462;-75
2022/05/08 00:24:19;;;;;;;321.67;115.70;;;;;;;11.69;53.88;100259.28;338894;29;1068;-75
2022/05/08 00:24:29;;;;;;;319.63;116.23;;;;;;;11.68;53.91;100257.56;341397;29;1338;-75
2022/05/08 00:24:40;;;;;;;318.53;116.83;;;;;;;11.69;53.91;100253.19;338329;29;1313;-75
2022/05/08 00:24:50;;;;;;;319.13;117.60;;;;;;;11.73;53.74;100260.00;336903;29;1239;-75
2022/05/08 00:25:04;;;;;;;319.37;115.83;;;;;;;11.74;53.91;100259.94;337122;29;1572;-75
2022/05/08 00:25:15;;;;;;;317.75;113.90;;;;;;;11.77;53.76;100259.03;335644;29;1520;-74
2022/05/08 00:25:26;;;;;;;318.60;115.17;;;;;;;11.75;53.65;100258.19;336935;29;1735;-75
2022/05/08 00:25:37;;;;;;;318.20;116.25;;;;;;;11.73;53.89;100260.88;338406;29;991;-75
2022/05/08 00:25:47;;;;;;;319.60;117.40;;;;;;;11.70;53.66;100257.53;338189;29;1623;-75
2022/05/08 00:25:57;;;;;;;319.77;116.60;;;;;;;11.68;53.77;100256.72;338433;29;1173;-75
2022/05/08 00:26:08;;;;;;;320.95;117.72;;;;;;;11.63;53.90;100255.13;337091;29;1241;-75
2022/05/08 00:26:19;;;;;;;320.57;117.73;;;;;;;11.62;53.96;100256.03;340304;29;1213;-75
2022/05/08 00:26:29;;;;;;;322.45;118.28;;;;;;;11.63;54.21;100257.75;339549;29;1439;-75
2022/05/08 00:26:39;;;;;;;323.75;118.28;;;;;;;11.65;53.87;100255.91;334500;29;1218;-75
2022/05/08 00:26:50;;;;;;;325.43;118.87;;;;;;;11.64;53.94;100256.81;336978;29;1680;-75
2022/05/08 00:27:01;;;;;;;322.10;118.00;;;;;;;11.64;53.83;100254.19;336668;29;1324;-75
2022/05/08 00:27:11;;;;;;;321.97;117.63;;;;;;;11.60;53.88;100257.84;339235;29;1023;-75
2022/05/08 00:27:21;;;;;;;321.55;116.97;;;;;;;11.56;54.16;100258.84;337032;29;1386;-75
2022/05/08 00:27:32;;;;;;;322.43;117.23;;;;;;;11.56;53.98;100256.22;334551;29;851;-75
2022/05/08 00:27:42;;;;;;;321.42;117.57;;;;;;;11.60;53.79;100260.47;337126;29;858;-75
2022/05/08 00:27:53;;;;;;;320.00;117.53;;;;;;;11.61;53.76;100256.06;339720;29;2042;-75
2022/05/08 00:28:03;;;;;;;320.88;117.65;;;;;;;11.61;53.98;100256.06;340088;29;1012;-75
2022/05/08 00:28:14;;;;;;;320.63;118.10;;;;;;;11.57;53.96;100257.94;339702;29;865;-75
2022/05/08 00:28:24;;;;;;;323.08;118.68;;;;;;;11.54;53.83;100255.44;339635;29;1784;-75
2022/05/08 00:28:38;;;;;;;322.77;118.27;;;;;;;11.52;54.14;100257.25;337173;29;884;-75
2022/05/08 00:28:50;;;;;;;321.70;117.22;;;;;;;11.53;54.25;100258.97;337521;29;1565;-75
2022/05/08 00:29:01;;;;;;;318.63;115.63;;;;;;;11.52;54.34;100257.25;338289;29;1543;-75
2022/05/08 00:29:12;;;;;;;320.00;116.32;;;;;;;11.54;54.18;100251.94;339597;29;1213;-75
2022/05/08 00:29:22;;;;;;;321.83;117.88;;;;;;;11.55;54.18;100257.13;338301;29;1505;-75
2022/05/08 00:29:33;;;;;;;320.27;118.15;;;;;;;11.57;54.18;100260.56;334868;29;1327;-75
2022/05/08 00:29:43;;;;;;;319.77;116.60;;;;;;;11.57;54.12;100263.19;337490;29;855;-75
2022/05/08 00:29:54;;;;;;;321.17;116.15;;;;;;;11.58;54.17;100256.19;336511;29;2286;-75
2022/05/08 00:30:05;;;;;;;323.67;117.33;;;;;;;11.58;54.29;100251.78;337071;29;1224;-75
2022/05/08 00:30:15;;;;;;;323.30;117.88;;;;;;;11.58;54.18;100257.03;337285;29;1926;-75
2022/05/08 00:30:25;;;;;;;318.90;115.90;;;;;;;11.57;54.19;100262.34;338756;29;1195;-75
2022/05/08 00:30:36;;;;;;;316.87;113.43;;;;;;;11.58;54.39;100251.78;340980;29;1552;-75
2022/05/08 00:30:46;;;;;;;316.45;112.88;;;;;;;11.57;54.47;100255.31;337569;29;886;-75
2022/05/08 00:30:57;;;;;;;317.63;114.50;;;;;;;11.58;54.18;100259.66;335810;29;937;-75
2022/05/08 00:31:10;;;;;;;315.77;114.17;;;;;;;11.60;53.79;100255.22;337049;29;1189;-75
2022/05/08 00:31:21;;;;;;;315.13;113.03;;;;;;;11.63;53.79;100260.34;336823;29;1548;-75
2022/05/08 00:31:31;;;;;;;315.23;110.72;;;;;;;11.67;54.04;100258.47;337113;29;855;-75
2022/05/08 00:31:42;;;;;;;317.83;111.93;;;;;;;11.71;54.05;100256.59;337042;29;2004;-75
2022/05/08 00:31:52;;;;;;;319.98;114.47;;;;;;;11.73;53.92;100257.38;338433;29;814;-75
2022/05/08 00:32:03;;;;;;;322.93;118.33;;;;;;;11.75;53.74;100255.56;337042;29;1576;-75
2022/05/08 00:32:13;;;;;;;323.70;118.63;;;;;;;11.76;53.96;100254.66;337297;29;1460;-75
2022/05/08 00:32:24;;;;;;;321.80;117.05;;;;;;;11.76;53.83;100255.50;337164;29;1024;-75
2022/05/08 00:32:35;;;;;;;318.73;114.80;;;;;;;11.77;53.79;100262.50;339163;29;2325;-75
2022/05/08 00:32:45;;;;;;;317.58;114.25;;;;;;;11.78;53.82;100253.72;337005;29;1069;-75
2022/05/08 00:32:55;;;;;;;318.53;114.13;;;;;;;11.75;53.74;100258.19;337131;29;1303;-75
2022/05/08 00:33:06;;;;;;;319.50;115.35;;;;;;;11.75;53.69;100248.56;337104;29;1064;-75
2022/05/08 00:33:16;;;;;;;321.80;117.13;;;;;;;11.73;53.85;100258.25;338337;29;1300;-75
2022/05/08 00:33:27;;;;;;;321.38;117.85;;;;;;;11.70;53.79;100254.91;336918;29;954;-75
2022/05/08 00:33:38;;;;;;;319.67;116.53;;;;;;;11.68;54.11;100248.84;338317;29;1387;-75
2022/05/08 00:33:48;;;;;;;319.27;115.00;;;;;;;11.63;53.96;100255.13;338314;29;1605;-75
2022/05/08 00:33:58;;;;;;;320.33;115.03;;;;;;;11.59;54.10;100258.75;338296;29;1911;-75
2022/05/08 00:34:09;;;;;;;320.03;116.23;;;;;;;11.60;54.02;100256.97;337115;29;927;-76
2022/05/08 00:34:19;;;;;;;319.17;115.93;;;;;;;11.60;54.20;100249.97;336926;29;1312;-75
2022/05/08 00:34:29;;;;;;;319.38;116.25;;;;;;;11.62;54.33;100263.88;338306;29;1496;-75
2022/05/08 00:34:40;;;;;;;318.90;116.47;;;;;;;11.63;54.31;100254.25;338358;29;1324;-75
2022/05/08 00:34:50;;;;;;;317.27;116.65;;;;;;;11.65;54.11;100253.28;336971;29;1096;-75
2022/05/08 00:35:01;;;;;;;317.27;116.07;;;;;;;11.68;54.32;100252.34;334514;29;1615;-75
2022/05/08 00:35:11;;;;;;;320.77;115.45;;;;;;;11.71;54.10;100261.81;338172;29;1871;-75
2022/05/08 00:35:21;;;;;;;324.00;115.40;;;;;;;11.72;54.04;100258.28;340371;29;1689;-75
2022/05/08 00:35:32;;;;;;;323.13;114.45;;;;;;;11.73;54.23;100260.88;338343;29;858;-75
2022/05/08 00:35:42;;;;;;;320.00;113.87;;;;;;;11.67;54.17;100255.88;339688;29;882;-75
2022/05/08 00:35:54;;;;;;;318.77;113.80;;;;;;;11.62;54.41;100258.66;335757;29;1321;-75
2022/05/08 00:36:05;;;;;;;317.20;114.63;;;;;;;11.57;54.31;100255.31;339588;29;1373;-75
2022/05/08 00:36:15;;;;;;;315.15;115.07;;;;;;;11.55;54.28;100253.66;339591;29;1253;-75
2022/05/08 00:36:25;;;;;;;314.27;115.03;;;;;;;11.52;54.36;100251.16;338374;29;882;-75
2022/05/08 00:36:36;;;;;;;316.63;115.80;;;;;;;11.49;54.18;100262.59;338481;29;1457;-75
2022/05/08 00:36:46;;;;;;;318.50;115.90;;;;;;;11.46;54.39;100252.22;338842;29;1262;-76
2022/05/08 00:36:57;;;;;;;319.30;115.55;;;;;;;11.45;54.57;100266.22;338254;29;1764;-75
2022/05/08 00:37:07;;;;;;;319.53;114.47;;;;;;;11.46;54.68;100254.81;337163;29;996;-75
2022/05/08 00:37:18;;;;;;;320.35;114.20;;;;;;;11.47;54.44;100253.91;336959;29;1446;-75
2022/05/08 00:37:28;;;;;;;321.80;114.77;;;;;;;11.49;54.85;100257.34;335578;29;1768;-75
2022/05/08 00:37:38;;;;;;;323.63;116.05;;;;;;;11.50;54.46;100258.19;336259;29;1129;-75
2022/05/08 00:37:49;;;;;;;323.27;116.73;;;;;;;11.47;54.74;100258.31;337254;29;969;-75
2022/05/08 00:37:59;;;;;;;319.52;114.95;;;;;;;11.48;54.59;100252.16;338269;29;1190;-75
2022/05/08 00:38:10;;;;;;;323.10;115.13;;;;;;;11.48;54.58;100255.63;337005;29;1375;-75
2022/05/08 00:38:20;;;;;;;321.73;112.23;;;;;;;11.47;54.66;100253.91;339675;29;927;-75
2022/05/08 00:38:30;;;;;;;325.63;112.80;;;;;;;11.48;54.66;100254.78;338021;29;2489;-75
2022/05/08 00:38:41;;;;;;;320.97;113.63;;;;;;;11.47;54.50;100259.16;338897;29;1822;-75
2022/05/08 00:38:51;;;;;;;322.92;115.65;;;;;;;11.47;54.53;100259.16;340837;29;1293;-75
2022/05/08 00:39:01;;;;;;;322.80;116.70;;;;;;;11.48;54.67;100252.16;338365;29;938;-75
2022/05/08 00:39:12;;;;;;;322.30;115.07;;;;;;;11.45;54.82;100250.50;338358;29;1435;-75
2022/05/08 00:39:23;;;;;;;319.43;114.23;;;;;;;11.45;54.59;100255.75;336949;29;1231;-75
2022/05/08 00:39:33;;;;;;;320.25;113.10;;;;;;;11.46;54.81;100252.22;339548;29;1699;-75
2022/05/08 00:39:43;;;;;;;319.43;113.30;;;;;;;11.47;54.90;100253.06;337058;29;959;-75
2022/05/08 00:39:54;;;;;;;322.55;115.22;;;;;;;11.49;54.83;100254.72;339307;29;2166;-75
2022/05/08 00:40:05;;;;;;;321.73;116.37;;;;;;;11.48;54.77;100254.78;338703;29;2064;-75
2022/05/08 00:40:15;;;;;;;322.33;116.68;;;;;;;11.46;54.67;100257.44;341636;28;1981;-75
2022/05/08 00:40:26;;;;;;;320.48;116.25;;;;;;;11.46;54.72;100252.22;338522;29;1350;-75
2022/05/08 00:40:37;;;;;;;319.37;116.77;;;;;;;11.49;54.64;100257.34;338391;29;855;-75
2022/05/08 00:40:48;;;;;;;319.83;117.38;;;;;;;11.52;54.53;100253.78;340572;29;1442;-75
2022/05/08 00:40:58;;;;;;;322.23;119.27;;;;;;;11.54;54.43;100252.81;338388;29;1362;-75
2022/05/08 00:41:08;;;;;;;323.08;118.85;;;;;;;11.57;54.62;100250.09;335744;29;1235;-75
2022/05/08 00:41:19;;;;;;;325.83;119.83;;;;;;;11.60;54.45;100252.59;338156;29;5568;-75
2022/05/08 00:41:29;;;;;;;323.60;118.03;;;;;;;11.64;54.49;100251.59;338306;29;1301;-75
2022/05/08 00:41:40;;;;;;;322.83;116.80;;;;;;;11.66;54.54;100248.91;338438;29;906;-75
2022/05/08 00:41:51;;;;;;;323.95;115.85;;;;;;;11.68;54.35;100256.72;337726;29;1982;-75
2022/05/08 00:42:02;;;;;;;322.52;115.50;;;;;;;11.69;54.77;100255.81;335775;29;1316;-74
2022/05/08 00:42:12;;;;;;;318.08;114.82;;;;;;;11.69;54.63;100250.56;335315;29;2244;-74
2022/05/08 00:42:23;;;;;;;316.60;115.07;;;;;;;11.69;54.26;100253.19;337179;29;1038;-74
2022/05/08 00:42:34;;;;;;;317.48;115.30;;;;;;;11.66;54.32;100255.00;336993;29;1368;-76
2022/05/08 00:42:44;;;;;;;317.63;113.97;;;;;;;11.69;54.23;100247.94;339574;29;1164;-75
2022/05/08 00:42:55;;;;;;;317.70;113.17;;;;;;;11.69;54.06;100247.94;338511;29;834;-75
2022/05/08 00:43:34;;;;;;;317.88;113.35;;;;;;;11.74;53.94;100246.00;338318;29;810;-75
2022/05/08 00:43:44;;;;;;;313.83;116.75;;;;;;;11.69;54.33;100255.81;338353;29;1117;-74
2022/05/08 00:43:55;;;;;;;314.90;114.73;;;;;;;11.69;54.25;100250.56;335892;29;929;-74
2022/05/08 00:44:05;;;;;;;315.92;115.30;;;;;;;11.71;54.58;100253.97;335829;29;818;-75
2022/05/08 00:44:15;;;;;;;321.33;117.97;;;;;;;11.69;54.37;100250.56;339413;29;1818;-75
2022/05/08 00:44:26;;;;;;;323.02;121.13;;;;;;;11.73;54.08;100250.38;338429;29;1519;-75
2022/05/08 00:44:36;;;;;;;322.63;121.30;;;;;;;11.74;54.15;100252.09;336967;29;1240;-75
2022/05/08 00:44:47;;;;;;;320.70;119.82;;;;;;;11.72;54.36;100250.44;336971;29;753;-75
2022/05/08 00:44:57;;;;;;;321.07;118.93;;;;;;;11.72;54.17;100253.06;338339;29;992;-75
2022/05/08 00:45:08;;;;;;;321.25;118.38;;;;;;;11.70;54.04;100252.28;337886;29;1362;-74
2022/05/08 00:45:18;;;;;;;321.67;117.90;;;;;;;11.69;54.22;100247.94;337980;29;1971;-74
2022/05/08 00:45:29;;;;;;;320.10;118.00;;;;;;;11.67;54.23;100250.63;337040;29;2795;-74
2022/05/08 00:45:39;;;;;;;319.80;117.47;;;;;;;11.64;54.20;100251.59;337273;29;886;-74
2022/05/08 00:45:49;;;;;;;319.35;116.88;;;;;;;11.62;54.36;100247.31;340903;29;918;-74
2022/05/08 00:46:04;;;;;;;321.17;117.33;;;;;;;11.57;54.57;100250.09;339776;29;872;-75
2022/05/08 00:46:16;;;;;;;322.35;117.30;;;;;;;11.59;54.71;100253.50;337283;29;1506;-74
2022/05/08 00:46:28;;;;;;;319.52;116.68;;;;;;;11.61;54.70;100251.69;338306;29;862;-74
2022/05/08 00:46:38;;;;;;;319.77;116.78;;;;;;;11.64;54.56;100251.59;336965;29;1715;-74
2022/05/08 00:46:49;;;;;;;320.00;117.17;;;;;;;11.66;54.74;100248.91;337828;29;1298;-74
2022/05/08 00:46:59;;;;;;;322.43;117.77;;;;;;;11.68;54.59;100247.09;337738;29;1784;-74
2022/05/08 00:47:10;;;;;;;321.50;118.53;;;;;;;11.70;53.98;100255.72;339158;29;2822;-74
2022/05/08 00:47:20;;;;;;;320.67;117.85;;;;;;;11.72;54.73;100253.06;339662;29;847;-74
2022/05/08 00:47:30;;;;;;;317.93;116.50;;;;;;;11.71;54.93;100252.19;338397;29;1490;-74
2022/05/08 00:47:41;;;;;;;319.33;115.53;;;;;;;11.75;54.92;100252.94;338194;29;2092;-76
2022/05/08 00:47:51;;;;;;;319.40;115.83;;;;;;;11.76;54.83;100254.66;337102;29;1322;-75
2022/05/08 00:48:02;;;;;;;320.45;116.93;;;;;;;11.76;55.01;100247.66;338218;29;1342;-74
2022/05/08 00:48:12;;;;;;;318.47;117.33;;;;;;;11.78;54.89;100253.72;337064;29;1366;-74
2022/05/08 00:48:23;;;;;;;319.80;116.80;;;;;;;11.79;54.94;100250.19;336938;29;1363;-74
2022/05/08 00:48:34;;;;;;;320.60;116.90;;;;;;;11.79;54.90;100250.19;338316;29;1144;-74
2022/05/08 00:48:44;;;;;;;320.85;116.03;;;;;;;11.79;54.70;100244.94;336960;29;781;-74
2022/05/08 00:48:55;;;;;;;323.38;117.70;;;;;;;11.81;54.91;100255.38;336969;29;1201;-74
2022/05/08 00:49:05;;;;;;;324.30;118.28;;;;;;;11.81;55.15;100252.75;338264;29;1461;-74